Time;durP1;ratioP1;P1;durP2;ratioP2;P2;SDS_P1;SDS_P2;PMS_P1;PMS_P2;Temp;Humidity;BMP_temperature;BMP_pressure;BME280_temperature;BME280_humidity;BME280_pressure;Samples;Min_cycle;Max_cycle;Signal;HPM_P1;HPM_P2
2023/04/10 00:00:01;;;;;;;;;;;;;;;;;;5059561;28;19927;-63
2023/04/10 00:02:27;;;;;;;;;;;;;;;;;;5045275;28;19966;-63
2023/04/10 00:04:53;;;;;;;;;;;;;;;;;;5052046;28;19925;-63
2023/04/10 00:07:20;;;;;;;;;;;;;;;;;;5066676;28;20440;-63
2023/04/10 00:09:45;;;;;;;;;;;;;;;;;;5053365;28;20353;-63
2023/04/10 00:12:11;;;;;;;;;;;;;;;;;;5055758;28;19928;-63
2023/04/10 00:14:37;;;;;;;;;;;;;;;;;;5052157;28;19921;-63
2023/04/10 00:17:03;;;;;;;;;;;;;;;;;;5053205;28;19925;-63
2023/04/10 00:19:29;;;;;;;;;;;;;;;;;;5067861;28;19929;-63
2023/04/10 00:21:55;;;;;;;;;;;;;;;;;;5050548;28;20008;-63
2023/04/10 00:24:21;;;;;;;;;;;;;;;;;;5049001;28;20028;-61
2023/04/10 00:26:47;;;;;;;;;;;;;;;;;;5050888;28;19933;-61
2023/04/10 00:29:13;;;;;;;;;;;;;;;;;;5051806;28;19924;-61
2023/04/10 00:31:39;;;;;;;;;;;;;;;;;;5052701;28;20336;-61
2023/04/10 00:34:05;;;;;;;;;;;;;;;;;;5052120;28;19925;-61
2023/04/10 00:36:31;;;;;;;;;;;;;;;;;;5053426;28;20384;-61
2023/04/10 00:38:58;;;;;;;;;;;;;;;;;;5050416;28;20000;-61
2023/04/10 00:41:24;;;;;;;;;;;;;;;;;;5050787;28;19991;-61
2023/04/10 00:43:50;;;;;;;;;;;;;;;;;;5050956;28;19928;-60
2023/04/10 00:46:16;;;;;;;;;;;;;;;;;;5053743;28;19921;-61
2023/04/10 00:48:42;;;;;;;;;;;;;;;;;;5052982;28;19924;-60
2023/04/10 00:51:07;;;;;;;;;;;;;;;;;;5050920;28;20019;-61
2023/04/10 00:53:33;;;;;;;;;;;;;;;;;;5048953;28;19954;-60
2023/04/10 00:55:59;;;;;;;;;;;;;;;;;;5049916;28;19967;-61
2023/04/10 00:58:25;;;;;;;;;;;;;;;;;;5050682;28;19925;-61
2023/04/10 01:00:51;;;;;;;;;;;;;;;;;;5057013;28;19931;-61
2023/04/10 01:03:17;;;;;;;;;;;;;;;;;;5035994;28;19921;-61
2023/04/10 01:05:43;;;;;;;;;;;;;;;;;;5047852;28;20012;-60
2023/04/10 01:08:09;;;;;;;;;;;;;;;;;;5053966;28;19920;-61
2023/04/10 01:10:35;;;;;;;;;;;;;;;;;;5049828;28;19979;-60
2023/04/10 01:13:04;;;;;;;;;;;;;;;;;;5050871;28;19921;-62
2023/04/10 01:15:30;;;;;;;;;;;;;;;;;;5049180;28;19966;-62
2023/04/10 01:17:56;;;;;;;;;;;;;;;;;;5051362;28;20397;-62
2023/04/10 01:20:22;;;;;;;;;;;;;;;;;;5049974;28;19921;-62
2023/04/10 01:22:48;;;;;;;;;;;;;;;;;;5050981;28;20042;-62
2023/04/10 01:25:14;;;;;;;;;;;;;;;;;;5052538;28;19928;-62
2023/04/10 01:27:40;;;;;;;;;;;;;;;;;;5049453;28;20349;-62
2023/04/10 01:30:06;;;;;;;;;;;;;;;;;;5054636;28;19998;-62
2023/04/10 01:32:32;;;;;;;;;;;;;;;;;;5055855;28;20016;-63
2023/04/10 01:34:58;;;;;;;;;;;;;;;;;;5055949;28;19955;-63
2023/04/10 01:37:23;;;;;;;;;;;;;;;;;;5054273;28;19929;-63
2023/04/10 01:39:49;;;;;;;;;;;;;;;;;;5058778;28;19965;-64
2023/04/10 01:42:15;;;;;;;;;;;;;;;;;;5054732;28;20294;-63
2023/04/10 01:44:41;;;;;;;;;;;;;;;;;;5053002;28;19925;-63
2023/04/10 01:47:07;;;;;;;;;;;;;;;;;;5053953;28;19978;-63
2023/04/10 01:49:34;;;;;;;;;;;;;;;;;;5054468;28;20312;-63
2023/04/10 01:52:00;;;;;;;;;;;;;;;;;;5054675;28;20390;-63
2023/04/10 01:54:26;;;;;;;;;;;;;;;;;;5054505;28;19931;-63
2023/04/10 01:56:51;;;;;;;;;;;;;;;;;;5052513;28;19921;-63
2023/04/10 01:59:17;;;;;;;;;;;;;;;;;;5051108;28;19971;-63
2023/04/10 02:01:43;;;;;;;;;;;;;;;;;;5040929;28;20454;-63
2023/04/10 02:04:09;;;;;;;;;;;;;;;;;;5052280;28;19982;-63
2023/04/10 02:06:35;;;;;;;;;;;;;;;;;;5053374;28;19921;-63
2023/04/10 02:09:01;;;;;;;;;;;;;;;;;;5053344;28;19928;-63
2023/04/10 02:11:27;;;;;;;;;;;;;;;;;;5049138;28;19928;-63
2023/04/10 02:13:53;;;;;;;;;;;;;;;;;;5058922;28;19925;-63
2023/04/10 02:16:19;;;;;;;;;;;;;;;;;;5054715;28;19943;-63
2023/04/10 02:18:45;;;;;;;;;;;;;;;;;;5052996;28;19925;-63
2023/04/10 02:21:11;;;;;;;;;;;;;;;;;;5054239;28;19920;-63
2023/04/10 02:23:37;;;;;;;;;;;;;;;;;;5042521;28;19956;-63
2023/04/10 02:26:03;;;;;;;;;;;;;;;;;;5057466;28;20380;-62
2023/04/10 02:28:28;;;;;;;;;;;;;;;;;;5052904;28;19921;-62
2023/04/10 02:30:54;;;;;;;;;;;;;;;;;;5050284;28;20433;-62
2023/04/10 02:33:20;;;;;;;;;;;;;;;;;;5050528;28;20425;-62
2023/04/10 02:35:46;;;;;;;;;;;;;;;;;;5047289;28;19927;-62
2023/04/10 02:38:12;;;;;;;;;;;;;;;;;;5049257;28;20289;-62
2023/04/10 02:40:38;;;;;;;;;;;;;;;;;;5053951;28;20405;-62
2023/04/10 02:43:04;;;;;;;;;;;;;;;;;;5051045;28;19943;-62
2023/04/10 02:45:32;;;;;;;;;;;;;;;;;;5054132;28;19929;-62
2023/04/10 02:47:57;;;;;;;;;;;;;;;;;;5055967;28;19927;-62
2023/04/10 02:50:23;;;;;;;;;;;;;;;;;;5048466;28;19924;-62
2023/04/10 02:52:50;;;;;;;;;;;;;;;;;;5044857;28;20408;-62
2023/04/10 02:55:15;;;;;;;;;;;;;;;;;;5052705;28;19924;-62
2023/04/10 02:57:41;;;;;;;;;;;;;;;;;;5053573;28;19928;-60
2023/04/10 03:00:07;;;;;;;;;;;;;;;;;;5049182;28;19975;-60
2023/04/10 03:02:33;;;;;;;;;;;;;;;;;;5048768;28;19921;-60
2023/04/10 03:04:59;;;;;;;;;;;;;;;;;;5053145;28;20445;-61
2023/04/10 03:07:25;;;;;;;;;;;;;;;;;;5049627;28;19921;-61
2023/04/10 03:09:51;;;;;;;;;;;;;;;;;;5052042;28;19991;-61
2023/04/10 03:12:17;;;;;;;;;;;;;;;;;;5049599;28;19961;-61
2023/04/10 03:14:43;;;;;;;;;;;;;;;;;;5054367;28;19920;-61
2023/04/10 03:17:11;;;;;;;;;;;;;;;;;;5049340;28;19921;-61
2023/04/10 03:19:36;;;;;;;;;;;;;;;;;;5050924;28;19928;-61
2023/04/10 03:22:02;;;;;;;;;;;;;;;;;;5053736;28;19920;-60
2023/04/10 03:24:29;;;;;;;;;;;;;;;;;;5051001;28;19940;-61
2023/04/10 03:26:55;;;;;;;;;;;;;;;;;;5051477;28;19928;-60
2023/04/10 03:29:21;;;;;;;;;;;;;;;;;;5056840;28;19920;-60
2023/04/10 03:31:47;;;;;;;;;;;;;;;;;;5041133;28;19928;-60
2023/04/10 03:34:13;;;;;;;;;;;;;;;;;;5051860;28;20282;-60
2023/04/10 03:36:39;;;;;;;;;;;;;;;;;;5055005;28;19921;-61
2023/04/10 03:39:05;;;;;;;;;;;;;;;;;;5049524;28;19920;-60
2023/04/10 03:41:31;;;;;;;;;;;;;;;;;;5051112;28;20050;-61
2023/04/10 03:43:57;;;;;;;;;;;;;;;;;;5049429;28;19933;-62
2023/04/10 03:46:22;;;;;;;;;;;;;;;;;;5045747;28;20001;-63
2023/04/10 03:48:49;;;;;;;;;;;;;;;;;;5050406;28;19920;-63
2023/04/10 03:51:15;;;;;;;;;;;;;;;;;;5051946;28;19929;-63
2023/04/10 03:53:41;;;;;;;;;;;;;;;;;;5052616;28;19921;-63
2023/04/10 03:56:07;;;;;;;;;;;;;;;;;;5050025;28;19924;-63
2023/04/10 03:58:33;;;;;;;;;;;;;;;;;;5052262;28;19998;-63
2023/04/10 04:00:59;;;;;;;;;;;;;;;;;;5052416;28;20355;-63
2023/04/10 04:03:25;;;;;;;;;;;;;;;;;;5061218;23;19927;31
2023/04/10 04:05:51;;;;;;;;;;;;;;;;;;5066891;28;19936;-63
2023/04/10 04:08:17;;;;;;;;;;;;;;;;;;5072183;28;19924;-62
2023/04/10 04:10:43;;;;;;;;;;;;;;;;;;5072203;28;19932;-62
2023/04/10 04:13:09;;;;;;;;;;;;;;;;;;5071892;28;19975;-62
2023/04/10 04:15:35;;;;;;;;;;;;;;;;;;5053058;28;20003;-62
2023/04/10 04:18:00;;;;;;;;;;;;;;;;;;5071865;28;20028;-62
2023/04/10 04:20:26;;;;;;;;;;;;;;;;;;5054052;28;19955;-62
2023/04/10 04:22:52;;;;;;;;;;;;;;;;;;5071857;28;19920;-62
2023/04/10 04:25:19;;;;;;;;;;;;;;;;;;5070531;28;19924;-63
2023/04/10 04:27:45;;;;;;;;;;;;;;;;;;5071913;28;19924;-62
2023/04/10 04:30:11;;;;;;;;;;;;;;;;;;5071770;28;20034;-62
2023/04/10 04:32:36;;;;;;;;;;;;;;;;;;5070831;28;20019;-61
2023/04/10 04:35:02;;;;;;;;;;;;;;;;;;5071758;28;19930;-61
2023/04/10 04:37:28;;;;;;;;;;;;;;;;;;5071789;28;19924;-66
2023/04/10 04:39:54;;;;;;;;;;;;;;;;;;5071567;28;20050;-65
2023/04/10 04:42:20;;;;;;;;;;;;;;;;;;5071448;28;19967;-65
2023/04/10 04:44:46;;;;;;;;;;;;;;;;;;5070065;28;20007;-66
2023/04/10 04:47:12;;;;;;;;;;;;;;;;;;5070081;28;19931;-66
2023/04/10 04:49:38;;;;;;;;;;;;;;;;;;5069339;28;19920;-66
2023/04/10 04:52:04;;;;;;;;;;;;;;;;;;5071413;28;19935;-66
2023/04/10 04:54:30;;;;;;;;;;;;;;;;;;5071387;28;19928;-67
2023/04/10 04:56:56;;;;;;;;;;;;;;;;;;5069803;28;20282;-66
2023/04/10 04:59:22;;;;;;;;;;;;;;;;;;5070738;28;20382;-66
2023/04/10 05:01:48;;;;;;;;;;;;;;;;;;5072092;28;19924;-66
2023/04/10 05:04:14;;;;;;;;;;;;;;;;;;5073786;28;19928;-65
2023/04/10 05:06:40;;;;;;;;;;;;;;;;;;5075286;28;19927;-65
2023/04/10 05:09:06;;;;;;;;;;;;;;;;;;5074245;28;19920;-66
2023/04/10 05:11:32;;;;;;;;;;;;;;;;;;5073711;28;20412;-65
2023/04/10 05:13:58;;;;;;;;;;;;;;;;;;5073430;28;19920;-66
2023/04/10 05:16:24;;;;;;;;;;;;;;;;;;5073956;28;19920;-66
2023/04/10 05:18:50;;;;;;;;;;;;;;;;;;5074892;28;19921;-67
2023/04/10 05:21:16;;;;;;;;;;;;;;;;;;5074879;28;20273;-66
2023/04/10 05:23:42;;;;;;;;;;;;;;;;;;5073495;28;19925;-66
2023/04/10 05:26:08;;;;;;;;;;;;;;;;;;5073690;28;19947;-66
2023/04/10 05:28:34;;;;;;;;;;;;;;;;;;5074797;28;19920;-66
2023/04/10 05:31:00;;;;;;;;;;;;;;;;;;5074341;28;19946;-66
2023/04/10 05:33:26;;;;;;;;;;;;;;;;;;5072744;28;19925;-66
2023/04/10 05:35:52;;;;;;;;;;;;;;;;;;5074672;28;19967;-66
2023/04/10 05:38:18;;;;;;;;;;;;;;;;;;5074201;28;19972;-67
2023/04/10 05:40:44;;;;;;;;;;;;;;;;;;5074112;28;19975;-66
2023/04/10 05:43:09;;;;;;;;;;;;;;;;;;5072282;28;19925;-65
2023/04/10 05:45:35;;;;;;;;;;;;;;;;;;5072722;28;19930;-66
2023/04/10 05:48:01;;;;;;;;;;;;;;;;;;5072564;28;19924;-65
2023/04/10 05:50:27;;;;;;;;;;;;;;;;;;5074113;28;19924;-66
2023/04/10 05:52:53;;;;;;;;;;;;;;;;;;5073778;28;19921;-65
2023/04/10 05:55:19;;;;;;;;;;;;;;;;;;5074120;28;19920;-66
2023/04/10 05:57:45;;;;;;;;;;;;;;;;;;5073511;28;20020;-66
2023/04/10 06:00:11;;;;;;;;;;;;;;;;;;5072619;28;19931;-67
2023/04/10 06:02:37;;;;;;;;;;;;;;;;;;5073411;28;19969;-67
2023/04/10 06:05:03;;;;;;;;;;;;;;;;;;5087098;28;19928;-66
2023/04/10 06:07:31;;;;;;;;;;;;;;;;;;5075887;28;20015;-65
2023/04/10 06:09:57;;;;;;;;;;;;;;;;;;5094023;28;19972;-66
2023/04/10 06:12:24;;;;;;;;;;;;;;;;;;5075726;28;19994;-67
2023/04/10 06:14:50;;;;;;;;;;;;;;;;;;5093422;28;20277;-67
2023/04/10 06:17:16;;;;;;;;;;;;;;;;;;5093207;28;19924;-61
2023/04/10 06:19:42;;;;;;;;;;;;;;;;;;5108691;28;20260;-62
2023/04/10 06:22:08;;;;;;;;;;;;;;;;;;5088494;28;19974;-62
2023/04/10 06:24:34;;;;;;;;;;;;;;;;;;5073789;28;20277;-62
2023/04/10 06:27:00;;;;;;;;;;;;;;;;;;5055752;28;19927;-62
2023/04/10 06:29:26;;;;;;;;;;;;;;;;;;5073588;28;19924;-62
2023/04/10 06:31:52;;;;;;;;;;;;;;;;;;5073626;28;19946;-62
2023/04/10 06:34:18;;;;;;;;;;;;;;;;;;5073351;28;19924;-62
2023/04/10 06:36:44;;;;;;;;;;;;;;;;;;5091760;28;19920;-62
2023/04/10 06:39:10;;;;;;;;;;;;;;;;;;5093848;28;19943;-63
2023/04/10 06:41:36;;;;;;;;;;;;;;;;;;5075226;28;20397;-62
2023/04/10 06:44:02;;;;;;;;;;;;;;;;;;5093677;28;19928;-62
2023/04/10 06:46:28;;;;;;;;;;;;;;;;;;5075280;28;19920;-62
2023/04/10 06:48:54;;;;;;;;;;;;;;;;;;5075099;28;20426;-63
2023/04/10 06:51:20;;;;;;;;;;;;;;;;;;5075153;28;19924;-62
2023/04/10 06:53:46;;;;;;;;;;;;;;;;;;5073967;28;19931;-62
2023/04/10 06:56:12;;;;;;;;;;;;;;;;;;5093558;28;19999;-62
2023/04/10 06:58:38;;;;;;;;;;;;;;;;;;5091107;28;20062;-62
2023/04/10 07:01:04;;;;;;;;;;;;;;;;;;5093096;28;19924;-62
2023/04/10 07:03:31;;;;;;;;;;;;;;;;;;5093210;28;19931;-61
2023/04/10 07:05:57;;;;;;;;;;;;;;;;;;5074894;28;19935;-61
2023/04/10 07:08:23;;;;;;;;;;;;;;;;;;5092038;28;19924;-61
2023/04/10 07:10:48;;;;;;;;;;;;;;;;;;5091921;28;19920;-61
2023/04/10 07:13:14;;;;;;;;;;;;;;;;;;5074886;28;20369;-61
2023/04/10 07:15:40;;;;;;;;;;;;;;;;;;5093021;28;19924;-61
2023/04/10 07:18:06;;;;;;;;;;;;;;;;;;5093172;28;20311;-61
2023/04/10 07:20:32;;;;;;;;;;;;;;;;;;5092786;28;19926;-61
2023/04/10 07:22:58;;;;;;;;;;;;;;;;;;5093030;28;20276;-61
2023/04/10 07:25:24;;;;;;;;;;;;;;;;;;5073223;28;19935;-61
2023/04/10 07:27:50;;;;;;;;;;;;;;;;;;5091252;28;19928;-61
2023/04/10 07:30:16;;;;;;;;;;;;;;;;;;5074488;28;19924;-61
2023/04/10 07:32:42;;;;;;;;;;;;;;;;;;5092775;28;20299;-61
2023/04/10 07:35:08;;;;;;;;;;;;;;;;;;5074281;28;19927;-62
2023/04/10 07:37:34;;;;;;;;;;;;;;;;;;5092503;28;19924;-62
2023/04/10 07:40:01;;;;;;;;;;;;;;;;;;5072220;28;19924;-63
2023/04/10 07:42:27;;;;;;;;;;;;;;;;;;5091409;28;19924;-63
2023/04/10 07:44:52;;;;;;;;;;;;;;;;;;5092048;28;20003;-61
2023/04/10 07:47:18;;;;;;;;;;;;;;;;;;5057490;28;19921;-60
2023/04/10 07:49:45;;;;;;;;;;;;;;;;;;5073901;28;19924;-61
2023/04/10 07:52:11;;;;;;;;;;;;;;;;;;5091204;28;19920;-61
2023/04/10 07:54:36;;;;;;;;;;;;;;;;;;5091547;28;19966;-61
2023/04/10 07:57:02;;;;;;;;;;;;;;;;;;5092264;28;19920;-61
2023/04/10 07:59:28;;;;;;;;;;;;;;;;;;5073627;28;19925;-62
2023/04/10 08:01:54;;;;;;;;;;;;;;;;;;5091522;28;19923;-62
2023/04/10 08:04:20;;;;;;;;;;;;;;;;;;5092066;28;19931;-62
2023/04/10 08:06:46;;;;;;;;;;;;;;;;;;5092092;28;19927;-62
2023/04/10 08:09:12;;;;;;;;;;;;;;;;;;5072514;28;19954;-62
2023/04/10 08:11:38;;;;;;;;;;;;;;;;;;5092253;28;20425;-62
2023/04/10 08:14:05;;;;;;;;;;;;;;;;;;5073981;28;19920;-62
2023/04/10 08:16:31;;;;;;;;;;;;;;;;;;5073852;28;19920;-62
2023/04/10 08:18:57;;;;;;;;;;;;;;;;;;5092052;28;19920;-62
2023/04/10 08:21:23;;;;;;;;;;;;;;;;;;5092181;28;19931;-62
2023/04/10 08:23:50;;;;;;;;;;;;;;;;;;5092062;28;19977;-62
2023/04/10 08:26:16;;;;;;;;;;;;;;;;;;5092911;28;19924;-61
2023/04/10 08:28:46;;;;;;;;;;;;;;;;;;5091810;28;19920;-62
2023/04/10 08:31:12;;;;;;;;;;;;;;;;;;5074690;28;19927;-62
2023/04/10 08:33:38;;;;;;;;;;;;;;;;;;5075046;28;19920;-62
2023/04/10 08:36:05;;;;;;;;;;;;;;;;;;5091710;28;20381;-63
2023/04/10 08:38:31;;;;;;;;;;;;;;;;;;5095735;28;19966;-62
2023/04/10 08:40:56;;;;;;;;;;;;;;;;;;5095925;28;19923;-62
2023/04/10 08:43:22;;;;;;;;;;;;;;;;;;5095210;28;20019;-62
2023/04/10 08:45:48;;;;;;;;;;;;;;;;;;5095720;28;20450;-62
2023/04/10 08:48:14;;;;;;;;;;;;;;;;;;5095080;28;19920;-62
2023/04/10 08:50:40;;;;;;;;;;;;;;;;;;5089663;28;20023;-62
2023/04/10 08:53:06;;;;;;;;;;;;;;;;;;5095597;28;19928;-63
2023/04/10 08:55:32;;;;;;;;;;;;;;;;;;5095611;28;19920;-63
2023/04/10 08:57:58;;;;;;;;;;;;;;;;;;5095728;28;20376;-62
2023/04/10 09:00:24;;;;;;;;;;;;;;;;;;5077233;28;19931;-62
2023/04/10 09:02:54;;;;;;;;;;;;;;;;;;5077087;28;19935;-62
2023/04/10 09:05:19;;;;;;;;;;;;;;;;;;5076696;28;20285;-63
2023/04/10 09:07:45;;;;;;;;;;;;;;;;;;5076066;28;19924;-62
2023/04/10 09:10:11;;;;;;;;;;;;;;;;;;5094833;28;20300;-62
2023/04/10 09:12:37;;;;;;;;;;;;;;;;;;5095026;28;19926;-62
2023/04/10 09:15:03;;;;;;;;;;;;;;;;;;5094865;28;19923;-62
2023/04/10 09:17:29;;;;;;;;;;;;;;;;;;5094949;28;19966;-62
2023/04/10 09:19:55;;;;;;;;;;;;;;;;;;5094667;28;19924;-62
2023/04/10 09:22:21;;;;;;;;;;;;;;;;;;5075603;28;19930;-62
2023/04/10 09:24:47;;;;;;;;;;;;;;;;;;5094472;28;20490;-62
2023/04/10 09:27:13;;;;;;;;;;;;;;;;;;5076730;28;19920;-62
2023/04/10 09:29:39;;;;;;;;;;;;;;;;;;5094904;28;20539;-62
2023/04/10 09:32:05;;;;;;;;;;;;;;;;;;5094518;28;19924;-62
2023/04/10 09:34:31;;;;;;;;;;;;;;;;;;5094585;28;19924;-62
2023/04/10 09:36:56;;;;;;;;;;;;;;;;;;5059565;28;20431;-62
2023/04/10 09:39:22;;;;;;;;;;;;;;;;;;5076405;28;19924;-62
2023/04/10 09:41:48;;;;;;;;;;;;;;;;;;5075285;28;19920;-63
2023/04/10 09:44:14;;;;;;;;;;;;;;;;;;5094402;28;19920;-62
2023/04/10 09:46:40;;;;;;;;;;;;;;;;;;5094269;28;19920;-62
2023/04/10 09:49:08;;;;;;;;;;;;;;;;;;5093111;28;19971;-62
2023/04/10 09:51:34;;;;;;;;;;;;;;;;;;5094125;28;20420;-62
2023/04/10 09:54:00;;;;;;;;;;;;;;;;;;5094366;28;19920;-62
2023/04/10 09:56:29;;;;;;;;;;;;;;;;;;5094260;28;19963;-62
2023/04/10 09:58:55;;;;;;;;;;;;;;;;;;5093568;28;19926;-62
2023/04/10 10:01:21;;;;;;;;;;;;;;;;;;5094251;28;20007;-62
2023/04/10 10:03:47;;;;;;;;;;;;;;;;;;5093855;28;19931;-62
2023/04/10 10:06:12;;;;;;;;;;;;;;;;;;5076025;28;19924;-62
2023/04/10 10:08:38;;;;;;;;;;;;;;;;;;5092892;28;20644;-61
2023/04/10 10:11:08;;;;;;;;;;;;;;;;;;5060901;28;19920;-62
2023/04/10 10:13:34;;;;;;;;;;;;;;;;;;5092167;28;19920;-61
2023/04/10 10:16:00;;;;;;;;;;;;;;;;;;5090311;28;20033;-61
2023/04/10 10:18:26;;;;;;;;;;;;;;;;;;5091931;28;19963;-61
2023/04/10 10:20:52;;;;;;;;;;;;;;;;;;5075548;28;19920;-61
2023/04/10 10:23:18;;;;;;;;;;;;;;;;;;5094238;28;19933;-62
2023/04/10 10:25:44;;;;;;;;;;;;;;;;;;5074518;28;20319;-63
2023/04/10 10:28:10;;;;;;;;;;;;;;;;;;5090178;28;20269;-62
2023/04/10 10:33:40;;;;;;;;;;;;;;;;;;5107663;22;19973;-62
2023/04/10 10:36:06;;;;;;;;;;;;;;;;;;5100173;28;19931;-62
2023/04/10 10:38:32;;;;;;;;;;;;;;;;;;5110889;28;20015;-62
2023/04/10 10:40:57;;;;;;;;;;;;;;;;;;5107560;28;20381;-62
2023/04/10 10:43:23;;;;;;;;;;;;;;;;;;5111495;28;20397;-62
2023/04/10 10:45:49;;;;;;;;;;;;;;;;;;5112136;27;19928;-62
2023/04/10 10:48:15;;;;;;;;;;;;;;;;;;5112140;28;19926;-62
2023/04/10 10:50:41;;;;;;;;;;;;;;;;;;5110414;28;19931;-62
2023/04/10 10:53:07;;;;;;;;;;;;;;;;;;5097620;28;20254;-62
2023/04/10 10:55:36;;;;;;;;;;;;;;;;;;5089907;28;19919;-62
2023/04/10 10:58:02;;;;;;;;;;;;;;;;;;5111433;28;19919;-61
2023/04/10 11:00:28;;;;;;;;;;;;;;;;;;5099976;28;19927;-62
2023/04/10 11:02:54;;;;;;;;;;;;;;;;;;5101879;28;20545;-62
2023/04/10 11:05:20;;;;;;;;;;;;;;;;;;5094150;28;19931;-62
2023/04/10 11:07:47;;;;;;;;;;;;;;;;;;5093471;28;22300;-62
2023/04/10 11:10:13;;;;;;;;;;;;;;;;;;5108931;28;20010;-62
2023/04/10 11:12:39;;;;;;;;;;;;;;;;;;5107034;28;19920;-62
2023/04/10 11:15:05;;;;;;;;;;;;;;;;;;5109365;28;19927;-62
2023/04/10 11:17:31;;;;;;;;;;;;;;;;;;5111189;28;19920;-62
2023/04/10 11:19:58;;;;;;;;;;;;;;;;;;5112103;28;19964;-62
2023/04/10 11:22:24;;;;;;;;;;;;;;;;;;5104437;28;19923;-62
2023/04/10 11:24:50;;;;;;;;;;;;;;;;;;5112639;28;19973;-62
2023/04/10 11:27:16;;;;;;;;;;;;;;;;;;5112826;28;19970;-62
2023/04/10 11:29:42;;;;;;;;;;;;;;;;;;5113320;28;20054;-62
2023/04/10 11:32:08;;;;;;;;;;;;;;;;;;5113525;28;19920;-62
2023/04/10 11:34:34;;;;;;;;;;;;;;;;;;5112325;28;19931;-63
2023/04/10 11:37:03;;;;;;;;;;;;;;;;;;5112813;28;19927;-63
2023/04/10 11:39:29;;;;;;;;;;;;;;;;;;5105736;28;19977;-63
2023/04/10 11:41:56;;;;;;;;;;;;;;;;;;5102674;28;20288;-63
2023/04/10 11:44:22;;;;;;;;;;;;;;;;;;5101313;28;20566;-63
2023/04/10 11:46:50;;;;;;;;;;;;;;;;;;5110438;28;19920;-63
2023/04/10 11:49:16;;;;;;;;;;;;;;;;;;5112284;28;20008;-63
2023/04/10 11:51:42;;;;;;;;;;;;;;;;;;5092878;28;20280;-63
2023/04/10 11:54:07;;;;;;;;;;;;;;;;;;5112983;28;19920;-64
2023/04/10 11:56:33;;;;;;;;;;;;;;;;;;5107569;28;19923;-62
2023/04/10 11:59:01;;;;;;;;;;;;;;;;;;5057993;28;19927;-62
2023/04/10 12:01:27;;;;;;;;;;;;;;;;;;5111240;28;19989;-62
2023/04/10 12:03:53;;;;;;;;;;;;;;;;;;5103672;28;19924;-63
2023/04/10 12:06:19;;;;;;;;;;;;;;;;;;5108296;28;19920;-63
2023/04/10 12:08:46;;;;;;;;;;;;;;;;;;5107533;28;19924;-63
2023/04/10 12:11:12;;;;;;;;;;;;;;;;;;5106969;28;19919;-63
2023/04/10 12:13:38;;;;;;;;;;;;;;;;;;5092662;28;20453;-63
2023/04/10 12:16:04;;;;;;;;;;;;;;;;;;5085762;28;19924;-63
2023/04/10 12:18:30;;;;;;;;;;;;;;;;;;5092590;28;19965;-63
2023/04/10 12:20:56;;;;;;;;;;;;;;;;;;5108150;28;19924;-63
2023/04/10 12:23:22;;;;;;;;;;;;;;;;;;5111601;28;20295;-63
2023/04/10 12:25:48;;;;;;;;;;;;;;;;;;5092214;28;19928;-62
2023/04/10 12:28:14;;;;;;;;;;;;;;;;;;5111432;28;19923;-62
2023/04/10 12:30:40;;;;;;;;;;;;;;;;;;5090567;28;19920;-63
2023/04/10 12:33:06;;;;;;;;;;;;;;;;;;5107750;28;20026;-62
2023/04/10 12:35:32;;;;;;;;;;;;;;;;;;5075816;28;19998;-62
2023/04/10 12:37:58;;;;;;;;;;;;;;;;;;5092801;28;19927;-63
2023/04/10 12:40:24;;;;;;;;;;;;;;;;;;5101685;28;19920;-63
2023/04/10 12:42:50;;;;;;;;;;;;;;;;;;5111587;28;19928;-64
2023/04/10 12:45:16;;;;;;;;;;;;;;;;;;5110233;28;20326;-63
2023/04/10 12:47:42;;;;;;;;;;;;;;;;;;5070722;28;20328;-66
2023/04/10 12:50:08;;;;;;;;;;;;;;;;;;5106934;28;20747;-66
2023/04/10 12:52:34;;;;;;;;;;;;;;;;;;5080580;28;20141;-66
2023/04/10 12:55:00;;;;;;;;;;;;;;;;;;5107058;28;19920;-66
2023/04/10 12:57:26;;;;;;;;;;;;;;;;;;5105370;28;19923;-66
2023/04/10 12:59:52;;;;;;;;;;;;;;;;;;5106155;28;19931;-66
2023/04/10 13:02:20;;;;;;;;;;;;;;;;;;5110663;28;20327;-66
2023/04/10 13:04:46;;;;;;;;;;;;;;;;;;5107893;28;19924;-66
2023/04/10 13:07:12;;;;;;;;;;;;;;;;;;5105537;28;19920;-65
2023/04/10 13:09:37;;;;;;;;;;;;;;;;;;5091664;28;19926;-65
2023/04/10 13:12:05;;;;;;;;;;;;;;;;;;5109966;28;19927;-66
2023/04/10 13:14:32;;;;;;;;;;;;;;;;;;5105665;28;19934;-65
2023/04/10 13:16:57;;;;;;;;;;;;;;;;;;5098555;28;20349;-65
2023/04/10 13:19:23;;;;;;;;;;;;;;;;;;5105989;28;19924;-65
2023/04/10 13:21:50;;;;;;;;;;;;;;;;;;5106210;28;19924;-65
2023/04/10 13:24:16;;;;;;;;;;;;;;;;;;5113735;28;19924;-65
2023/04/10 13:26:42;;;;;;;;;;;;;;;;;;5113692;28;19927;-66
2023/04/10 13:29:08;;;;;;;;;;;;;;;;;;5109193;28;20601;-66
2023/04/10 13:31:34;;;;;;;;;;;;;;;;;;5111247;28;19923;-61
2023/04/10 13:34:00;;;;;;;;;;;;;;;;;;5105682;28;19931;-62
2023/04/10 13:36:26;;;;;;;;;;;;;;;;;;5095063;28;19920;-61
2023/04/10 13:38:52;;;;;;;;;;;;;;;;;;5085923;28;20004;-61
2023/04/10 13:41:19;;;;;;;;;;;;;;;;;;5111486;28;19924;-61
2023/04/10 13:43:45;;;;;;;;;;;;;;;;;;5114462;28;19930;-64
2023/04/10 13:46:11;;;;;;;;;;;;;;;;;;5084483;28;20573;-65
2023/04/10 13:48:40;;;;;;;;;;;;;;;;;;5114110;28;19919;-64
2023/04/10 13:51:05;;;;;;;;;;;;;;;;;;5107750;28;19932;-65
2023/04/10 13:53:31;;;;;;;;;;;;;;;;;;5110156;28;19919;-64
2023/04/10 13:55:57;;;;;;;;;;;;;;;;;;5113821;28;19923;-66
2023/04/10 13:58:25;;;;;;;;;;;;;;;;;;5114943;28;19930;-66
2023/04/10 14:00:51;;;;;;;;;;;;;;;;;;5112710;28;20381;-65
2023/04/10 14:03:17;;;;;;;;;;;;;;;;;;5092447;28;20014;-65
2023/04/10 14:05:44;;;;;;;;;;;;;;;;;;5095865;28;20333;-65
2023/04/10 14:08:13;;;;;;;;;;;;;;;;;;5111542;28;19926;-65
2023/04/10 14:10:39;;;;;;;;;;;;;;;;;;5102769;28;19945;-65
2023/04/10 14:13:05;;;;;;;;;;;;;;;;;;5095828;28;19923;-64
2023/04/10 14:15:31;;;;;;;;;;;;;;;;;;5103088;28;19931;-64
2023/04/10 14:17:57;;;;;;;;;;;;;;;;;;5092958;28;19928;-65
2023/04/10 14:20:23;;;;;;;;;;;;;;;;;;5105693;28;20005;-65
2023/04/10 14:22:49;;;;;;;;;;;;;;;;;;5104828;28;19931;-65
2023/04/10 14:25:15;;;;;;;;;;;;;;;;;;5109587;28;19971;-65
2023/04/10 14:27:41;;;;;;;;;;;;;;;;;;5110015;28;19926;-64
2023/04/10 14:30:06;;;;;;;;;;;;;;;;;;5107001;28;20402;-65
2023/04/10 14:32:32;;;;;;;;;;;;;;;;;;5097581;28;19923;-64
2023/04/10 14:34:58;;;;;;;;;;;;;;;;;;5108795;28;19959;-65
2023/04/10 14:37:24;;;;;;;;;;;;;;;;;;5093685;28;19919;-64
2023/04/10 14:39:50;;;;;;;;;;;;;;;;;;5094942;28;20006;-64
2023/04/10 14:42:16;;;;;;;;;;;;;;;;;;5110091;28;19928;-64
2023/04/10 14:44:42;;;;;;;;;;;;;;;;;;5113400;28;19969;-66
2023/04/10 14:47:09;;;;;;;;;;;;;;;;;;5107601;28;19999;-64
2023/04/10 14:49:35;;;;;;;;;;;;;;;;;;5107252;28;19936;-65
2023/04/10 14:52:01;;;;;;;;;;;;;;;;;;5111261;28;19928;-65
2023/04/10 14:54:26;;;;;;;;;;;;;;;;;;5110899;28;20371;-65
2023/04/10 14:56:52;;;;;;;;;;;;;;;;;;5111519;28;19924;-65
2023/04/10 14:59:18;;;;;;;;;;;;;;;;;;5093328;28;19923;-65
2023/04/10 15:01:44;;;;;;;;;;;;;;;;;;5112176;28;19931;-65
2023/04/10 15:04:10;;;;;;;;;;;;;;;;;;5093762;28;19924;-65
2023/04/10 15:06:36;;;;;;;;;;;;;;;;;;5092715;28;20474;-65
2023/04/10 15:09:02;;;;;;;;;;;;;;;;;;5098705;28;19931;-65
2023/04/10 15:11:28;;;;;;;;;;;;;;;;;;5113330;28;19927;-65
2023/04/10 15:13:54;;;;;;;;;;;;;;;;;;5094618;28;20397;-65
2023/04/10 15:16:20;;;;;;;;;;;;;;;;;;5112482;28;19974;-65
2023/04/10 15:18:46;;;;;;;;;;;;;;;;;;5106304;28;19931;-65
2023/04/10 15:21:12;;;;;;;;;;;;;;;;;;5090286;28;19920;-65
2023/04/10 15:23:38;;;;;;;;;;;;;;;;;;5105035;28;19935;-66
2023/04/10 15:26:04;;;;;;;;;;;;;;;;;;5082939;28;19919;-66
2023/04/10 15:28:30;;;;;;;;;;;;;;;;;;5104817;28;19924;-66
2023/04/10 15:30:56;;;;;;;;;;;;;;;;;;5107363;28;19927;-65
2023/04/10 15:33:22;;;;;;;;;;;;;;;;;;5105056;28;19926;-65
2023/04/10 15:35:48;;;;;;;;;;;;;;;;;;5106255;28;19927;-66
2023/04/10 15:38:14;;;;;;;;;;;;;;;;;;5108350;28;19965;-66
2023/04/10 15:40:40;;;;;;;;;;;;;;;;;;5112246;28;19981;-65
2023/04/10 15:43:06;;;;;;;;;;;;;;;;;;5091877;28;20459;-66
2023/04/10 15:45:32;;;;;;;;;;;;;;;;;;5108332;28;20050;-65
2023/04/10 15:47:59;;;;;;;;;;;;;;;;;;5109445;28;19919;-66
2023/04/10 15:50:25;;;;;;;;;;;;;;;;;;5094150;28;19934;-66
2023/04/10 15:52:51;;;;;;;;;;;;;;;;;;5110657;28;19921;-66
2023/04/10 15:55:17;;;;;;;;;;;;;;;;;;5112491;28;20392;-65
2023/04/10 15:57:43;;;;;;;;;;;;;;;;;;5112498;28;19924;-65
2023/04/10 16:00:09;;;;;;;;;;;;;;;;;;5104462;28;19923;-65
2023/04/10 16:02:35;;;;;;;;;;;;;;;;;;5106752;28;19928;-65
2023/04/10 16:05:01;;;;;;;;;;;;;;;;;;5102609;28;19973;-65
2023/04/10 16:07:27;;;;;;;;;;;;;;;;;;5108231;28;19923;-65
2023/04/10 16:09:54;;;;;;;;;;;;;;;;;;5111677;28;19928;-65
2023/04/10 16:12:19;;;;;;;;;;;;;;;;;;5093754;28;20017;-66
2023/04/10 16:14:45;;;;;;;;;;;;;;;;;;5090230;28;19939;-65
2023/04/10 16:17:11;;;;;;;;;;;;;;;;;;5108449;28;20364;-65
2023/04/10 16:19:37;;;;;;;;;;;;;;;;;;5092617;28;19955;-66
2023/04/10 16:22:03;;;;;;;;;;;;;;;;;;5111062;28;19970;-66
2023/04/10 16:24:29;;;;;;;;;;;;;;;;;;5109851;28;20353;-65
2023/04/10 16:26:55;;;;;;;;;;;;;;;;;;5110186;28;19972;-65
2023/04/10 16:29:21;;;;;;;;;;;;;;;;;;5109375;28;19943;-65
2023/04/10 16:31:47;;;;;;;;;;;;;;;;;;5104874;28;20261;-66
2023/04/10 16:34:13;;;;;;;;;;;;;;;;;;5105222;28;19935;-64
2023/04/10 16:36:38;;;;;;;;;;;;;;;;;;5089425;28;19923;-65
2023/04/10 16:39:06;;;;;;;;;;;;;;;;;;5105471;28;19924;-65